createdAt,value
2023-08-28T00:00:42.313Z,68.35
2023-08-28T00:03:09.931Z,68.33
2023-08-28T00:05:37.638Z,68.41
2023-08-28T00:08:09.338Z,68.22
2023-08-28T00:10:38.324Z,68.18
2023-08-28T00:13:05.930Z,68.10
2023-08-28T00:15:33.514Z,68.37
2023-08-28T00:18:01.401Z,68.27
2023-08-28T00:20:29.178Z,68.39
2023-08-28T00:22:56.800Z,68.49
2023-08-28T00:25:24.304Z,68.54
2023-08-28T00:27:51.775Z,68.70
2023-08-28T00:30:19.422Z,68.80
2023-08-28T00:32:47.004Z,68.85
2023-08-28T00:35:14.672Z,68.88
2023-08-28T00:37:42.531Z,69.18
2023-08-28T00:40:14.604Z,69.04
2023-08-28T00:42:42.276Z,68.99
2023-08-28T00:45:10.735Z,69.02
2023-08-28T00:47:38.402Z,68.99
2023-08-28T00:50:06.420Z,68.95
2023-08-28T00:52:33.935Z,68.97
2023-08-28T00:55:01.512Z,69.02
2023-08-28T00:57:29.648Z,68.82
2023-08-28T00:59:57.193Z,68.99
2023-08-28T01:02:24.866Z,68.80
2023-08-28T01:04:54.041Z,68.93
2023-08-28T01:07:27.249Z,69.01
2023-08-28T01:10:16.473Z,69.16
2023-08-28T01:12:52.112Z,69.32
2023-08-28T01:15:21.765Z,69.47
2023-08-28T01:17:55.764Z,69.63
2023-08-28T01:20:25.380Z,69.69
2023-08-28T01:22:59.273Z,70.08
2023-08-28T01:25:26.961Z,70.18
2023-08-28T01:27:54.502Z,70.11
2023-08-28T01:30:22.448Z,70.34
2023-08-28T01:32:50.129Z,70.62
2023-08-28T01:35:21.885Z,71.03
2023-08-28T01:38:01.841Z,71.33
2023-08-28T01:41:00.610Z,71.45
2023-08-28T01:43:44.133Z,71.69
2023-08-28T01:46:11.768Z,71.87
2023-08-28T01:48:49.197Z,71.91
2023-08-28T01:51:17.947Z,72.02
2023-08-28T01:53:46.277Z,71.93
2023-08-28T01:56:23.739Z,72.05
2023-08-28T01:58:58.193Z,72.11
2023-08-28T02:01:26.781Z,72.23
2023-08-28T02:03:54.550Z,72.40
2023-08-28T02:06:22.141Z,72.42
2023-08-28T02:08:49.704Z,72.57
2023-08-28T02:11:18.655Z,72.58
2023-08-28T02:13:46.528Z,72.66
2023-08-28T02:16:14.490Z,72.36
2023-08-28T02:18:42.535Z,72.40
2023-08-28T02:21:11.755Z,72.38
2023-08-28T02:23:39.580Z,72.42
2023-08-28T02:26:07.198Z,72.35
2023-08-28T02:28:34.813Z,72.37
2023-08-28T02:31:04.974Z,72.26
2023-08-28T02:33:33.261Z,72.26
2023-08-28T02:36:02.885Z,72.01
2023-08-28T02:38:30.600Z,71.95
2023-08-28T02:41:16.468Z,72.08
2023-08-28T02:43:44.765Z,72.04
2023-08-28T02:46:12.578Z,72.12
2023-08-28T02:48:40.130Z,72.10
2023-08-28T02:51:08.882Z,72.11
2023-08-28T02:53:36.449Z,72.02
2023-08-28T02:56:26.330Z,71.97
2023-08-28T02:58:54.674Z,72.08
2023-08-28T03:01:22.540Z,72.09
2023-08-28T03:03:50.454Z,72.03
2023-08-28T03:06:18.125Z,72.09
2023-08-28T03:08:45.888Z,72.21
2023-08-28T03:11:13.466Z,72.00
2023-08-28T03:13:41.032Z,72.22
2023-08-28T03:16:08.685Z,72.17
2023-08-28T03:18:36.350Z,72.18
2023-08-28T03:21:04.476Z,72.20
2023-08-28T03:23:32.256Z,72.18
2023-08-28T03:26:00.555Z,72.09
2023-08-28T03:28:28.160Z,72.08
2023-08-28T03:30:59.794Z,71.99
2023-08-28T03:33:27.259Z,71.92
2023-08-28T03:35:54.792Z,71.98
2023-08-28T03:38:23.775Z,71.93
2023-08-28T03:40:51.321Z,71.84
2023-08-28T03:43:19.767Z,71.77
2023-08-28T03:45:47.383Z,71.75
2023-08-28T03:48:14.953Z,71.78
2023-08-28T03:50:42.549Z,71.72
2023-08-28T03:53:10.107Z,71.54
2023-08-28T03:55:39.338Z,71.80
2023-08-28T03:58:06.905Z,71.57
2023-08-28T04:00:34.454Z,71.63
2023-08-28T04:03:02.301Z,71.61
2023-08-28T04:05:34.284Z,71.34
2023-08-28T04:08:02.019Z,71.35
2023-08-28T04:10:29.640Z,71.40
2023-08-28T04:12:59.792Z,71.50
2023-08-28T04:15:27.341Z,71.38
2023-08-28T04:17:54.946Z,71.51
2023-08-28T04:20:23.027Z,71.43
2023-08-28T04:22:50.553Z,71.24
2023-08-28T04:25:18.110Z,71.16
2023-08-28T04:27:45.669Z,71.07
2023-08-28T04:30:13.399Z,71.12
2023-08-28T04:32:40.914Z,71.05
2023-08-28T04:35:08.938Z,70.98
2023-08-28T04:37:36.541Z,70.91
2023-08-28T04:40:04.512Z,70.86
2023-08-28T04:42:32.115Z,70.86
2023-08-28T04:44:59.672Z,70.77
2023-08-28T04:47:28.284Z,70.72
2023-08-28T04:49:55.869Z,70.67
2023-08-28T04:52:23.619Z,70.68
2023-08-28T04:54:51.198Z,70.43
2023-08-28T04:57:18.780Z,70.11
2023-08-28T04:59:46.434Z,69.88
2023-08-28T05:02:13.989Z,69.52
2023-08-28T05:04:41.668Z,69.37
2023-08-28T05:07:09.455Z,69.01
2023-08-28T05:09:37.031Z,68.70
2023-08-28T05:12:04.877Z,68.35
2023-08-28T05:14:33.338Z,68.02
2023-08-28T05:17:00.969Z,67.57
2023-08-28T05:19:28.598Z,67.06
2023-08-28T05:21:57.085Z,66.48
2023-08-28T05:24:24.600Z,66.09
2023-08-28T05:26:52.238Z,65.63
2023-08-28T05:29:19.766Z,65.30
2023-08-28T05:31:47.401Z,64.49
2023-08-28T05:34:16.600Z,63.72
2023-08-28T05:36:44.230Z,62.78
2023-08-28T05:39:11.844Z,62.16
2023-08-28T05:41:39.610Z,61.58
2023-08-28T05:44:09.917Z,60.83
2023-08-28T05:46:37.548Z,60.45
2023-08-28T05:49:05.295Z,60.24
2023-08-28T05:51:32.857Z,60.04
2023-08-28T05:54:00.392Z,59.99
2023-08-28T05:56:27.935Z,59.46
2023-08-28T05:58:55.554Z,59.14
2023-08-28T06:01:23.255Z,58.48
2023-08-28T06:03:57.478Z,58.20
2023-08-28T06:06:25.280Z,57.80
2023-08-28T06:08:52.852Z,57.32
2023-08-28T06:11:24.623Z,57.05
2023-08-28T06:13:52.233Z,56.44
2023-08-28T06:16:19.902Z,56.12
2023-08-28T06:18:47.437Z,55.81
2023-08-28T06:21:14.939Z,55.67
2023-08-28T06:23:42.484Z,55.20
2023-08-28T06:26:10.073Z,54.52
2023-08-28T06:28:37.615Z,53.76
2023-08-28T06:31:05.396Z,52.95
2023-08-28T06:33:33.117Z,52.51
2023-08-28T06:36:00.782Z,52.29
2023-08-28T06:38:29.011Z,51.89
2023-08-28T06:40:57.312Z,51.53
2023-08-28T06:43:24.914Z,50.85
2023-08-28T06:45:52.457Z,50.65
2023-08-28T06:48:20.048Z,50.04
2023-08-28T06:50:47.615Z,49.81
2023-08-28T06:53:15.156Z,48.63
2023-08-28T06:55:42.711Z,48.15
2023-08-28T06:58:10.340Z,47.78
2023-08-28T07:00:38.045Z,47.55
2023-08-28T07:03:05.979Z,47.83
2023-08-28T07:05:33.891Z,47.65
2023-08-28T07:08:01.482Z,47.74
2023-08-28T07:10:29.086Z,48.46
2023-08-28T07:12:56.614Z,48.69
2023-08-28T07:15:27.323Z,48.78
2023-08-28T07:17:54.976Z,48.74
2023-08-28T07:20:24.485Z,48.60
2023-08-28T07:22:58.738Z,48.16
2023-08-28T07:25:29.399Z,47.27
2023-08-28T07:27:57.141Z,46.75
2023-08-28T07:30:24.746Z,45.90
2023-08-28T07:32:53.368Z,45.59
2023-08-28T07:35:20.952Z,45.48
2023-08-28T07:37:48.507Z,44.82
2023-08-28T07:40:16.134Z,44.45
2023-08-28T07:42:43.728Z,44.98
2023-08-28T07:45:11.434Z,44.81
2023-08-28T07:47:39.634Z,44.46
2023-08-28T07:50:07.561Z,44.08
2023-08-28T07:52:35.393Z,43.42
2023-08-28T07:55:04.531Z,42.90
2023-08-28T07:57:35.813Z,42.61
2023-08-28T08:00:12.040Z,41.80
2023-08-28T08:02:42.510Z,41.52
2023-08-28T08:05:11.915Z,41.82
2023-08-28T08:07:42.529Z,41.60
2023-08-28T08:10:11.407Z,41.27
2023-08-28T08:12:39.705Z,40.98
2023-08-28T08:15:08.241Z,40.83
2023-08-28T08:17:37.818Z,40.42
2023-08-28T08:20:11.114Z,40.11
2023-08-28T08:22:39.509Z,40.15
2023-08-28T08:25:07.741Z,40.20
2023-08-28T08:27:36.029Z,39.96
2023-08-28T08:30:03.848Z,39.56
2023-08-28T08:32:31.407Z,39.51
2023-08-28T08:35:01.924Z,39.82
2023-08-28T08:37:29.480Z,39.91
2023-08-28T08:39:57.065Z,39.55
2023-08-28T08:42:24.700Z,39.78
2023-08-28T08:44:52.349Z,39.43
2023-08-28T08:47:19.899Z,38.65
2023-08-28T08:49:48.070Z,38.56
2023-08-28T08:52:17.027Z,38.06
2023-08-28T08:54:44.848Z,37.93
2023-08-28T08:57:24.124Z,37.28
2023-08-28T08:59:51.884Z,36.53
2023-08-28T09:02:19.495Z,36.62
2023-08-28T09:04:47.187Z,37.15
2023-08-28T09:07:14.891Z,37.34
2023-08-28T09:09:42.436Z,37.36
2023-08-28T09:12:10.240Z,37.21
2023-08-28T09:14:40.613Z,36.95
2023-08-28T09:17:08.588Z,36.18
2023-08-28T09:19:36.176Z,35.50
2023-08-28T09:22:04.855Z,35.98
2023-08-28T09:24:32.492Z,35.41
2023-08-28T09:27:00.817Z,34.46
2023-08-28T09:29:28.422Z,33.57
2023-08-28T09:32:05.414Z,32.34
2023-08-28T09:34:40.515Z,31.61
2023-08-28T09:37:11.992Z,32.25
2023-08-28T09:39:40.945Z,33.21
2023-08-28T09:42:09.935Z,33.56
2023-08-28T09:44:38.754Z,33.18
2023-08-28T09:47:06.729Z,33.07
2023-08-28T09:49:44.114Z,32.70
2023-08-28T09:52:12.397Z,32.22
2023-08-28T09:54:40.746Z,31.07
2023-08-28T09:57:17.640Z,31.01
2023-08-28T09:59:45.414Z,31.88
2023-08-28T10:02:21.031Z,31.83
2023-08-28T10:04:53.374Z,31.54
2023-08-28T10:07:23.276Z,31.28
2023-08-28T10:09:52.375Z,31.06
2023-08-28T10:12:21.906Z,30.99
2023-08-28T10:14:50.903Z,31.22
2023-08-28T10:17:19.190Z,31.08
2023-08-28T10:19:56.214Z,30.01
2023-08-28T10:22:23.820Z,29.98
2023-08-28T10:24:51.377Z,30.32
2023-08-28T10:27:18.938Z,30.68
2023-08-28T10:29:47.565Z,30.54
2023-08-28T10:32:15.424Z,30.19
2023-08-28T10:34:46.330Z,29.97
2023-08-28T10:37:27.821Z,29.59
2023-08-28T10:39:59.959Z,29.20
2023-08-28T10:42:28.446Z,29.96
2023-08-28T10:44:58.073Z,30.15
2023-08-28T10:47:26.886Z,30.10
2023-08-28T10:49:56.628Z,29.94
2023-08-28T10:52:24.875Z,30.49
2023-08-28T10:54:52.500Z,30.33
2023-08-28T10:57:40.807Z,30.00
2023-08-28T11:00:15.970Z,29.97
2023-08-28T11:03:03.835Z,30.46
2023-08-28T11:05:31.724Z,30.37
2023-08-28T11:08:05.178Z,30.53
2023-08-28T11:10:32.883Z,30.75
2023-08-28T11:13:07.387Z,29.96
2023-08-28T11:15:44.429Z,30.40
2023-08-28T11:18:25.473Z,30.64
2023-08-28T11:21:04.653Z,30.25
2023-08-28T11:23:37.818Z,29.82
2023-08-28T11:26:22.171Z,29.13
2023-08-28T11:28:50.660Z,29.14
2023-08-28T11:31:21.076Z,30.03
2023-08-28T11:33:53.253Z,30.43
2023-08-28T11:36:20.882Z,30.93
2023-08-28T11:38:48.859Z,31.05
2023-08-28T11:41:16.441Z,30.04
2023-08-28T11:43:44.673Z,29.64
2023-08-28T11:46:13.548Z,29.57
2023-08-28T11:48:44.413Z,30.05
2023-08-28T11:51:12.394Z,29.41
2023-08-28T11:53:43.998Z,28.62
2023-08-28T11:56:13.394Z,28.29
2023-08-28T11:58:42.359Z,28.11
2023-08-28T12:01:11.907Z,27.73
2023-08-28T12:03:41.394Z,28.12
2023-08-28T12:06:10.097Z,28.73
2023-08-28T12:08:38.287Z,28.76
2023-08-28T12:11:10.230Z,28.62
2023-08-28T12:13:38.420Z,28.74
2023-08-28T12:16:07.877Z,28.91
2023-08-28T12:18:45.452Z,29.43
2023-08-28T12:21:13.010Z,29.55
2023-08-28T12:23:48.344Z,28.93
2023-08-28T12:26:17.868Z,28.55
2023-08-28T12:28:47.630Z,28.23
2023-08-28T12:31:16.120Z,28.52
2023-08-28T12:33:44.478Z,27.81
2023-08-28T12:36:12.897Z,27.93
2023-08-28T12:38:50.718Z,27.69
2023-08-28T12:41:19.061Z,27.27
2023-08-28T12:43:47.040Z,28.54
2023-08-28T12:46:15.426Z,28.42
2023-08-28T12:48:44.890Z,27.67
2023-08-28T12:51:12.430Z,26.79
2023-08-28T12:53:40.363Z,26.82
2023-08-28T12:56:08.309Z,27.46
2023-08-28T12:58:35.865Z,27.09
2023-08-28T13:01:05.597Z,26.64
2023-08-28T13:03:35.729Z,26.69
2023-08-28T13:06:03.600Z,26.54
2023-08-28T13:08:31.251Z,27.10
2023-08-28T13:10:58.860Z,27.32
2023-08-28T13:13:28.016Z,26.89
2023-08-28T13:15:56.341Z,26.81
2023-08-28T13:18:23.997Z,26.87
2023-08-28T13:20:51.601Z,27.00
2023-08-28T13:23:19.161Z,27.24
2023-08-28T13:25:47.293Z,27.35
2023-08-28T13:28:15.778Z,27.21
2023-08-28T13:30:43.485Z,27.46
2023-08-28T13:33:11.483Z,28.37
2023-08-28T13:35:39.102Z,28.33
2023-08-28T13:38:06.933Z,28.12
2023-08-28T13:40:35.163Z,27.24
2023-08-28T13:43:06.142Z,27.10
2023-08-28T13:45:34.928Z,26.92
2023-08-28T13:48:02.708Z,27.25
2023-08-28T13:50:30.338Z,27.38
2023-08-28T13:52:58.016Z,27.34
2023-08-28T13:55:25.583Z,27.08
2023-08-28T13:57:53.241Z,26.91
2023-08-28T14:00:23.171Z,26.85
2023-08-28T14:02:50.878Z,26.58
2023-08-28T14:05:19.063Z,26.77
2023-08-28T14:07:46.711Z,27.21
2023-08-28T14:10:14.313Z,26.77
2023-08-28T14:12:41.968Z,26.32
2023-08-28T14:15:09.787Z,26.65
2023-08-28T14:17:37.419Z,26.90
2023-08-28T14:20:06.067Z,27.21
2023-08-28T14:22:33.982Z,27.56
2023-08-28T14:25:01.633Z,27.64
2023-08-28T14:27:35.189Z,27.14
2023-08-28T14:30:14.458Z,27.27
2023-08-28T14:32:42.048Z,26.88
2023-08-28T14:35:10.944Z,27.06
2023-08-28T14:37:38.527Z,26.76
2023-08-28T14:40:07.197Z,26.93
2023-08-28T14:42:35.033Z,26.92
2023-08-28T14:45:02.617Z,27.07
2023-08-28T14:47:30.302Z,26.66
2023-08-28T14:49:57.896Z,26.26
2023-08-28T14:52:28.143Z,25.63
2023-08-28T14:54:55.879Z,25.43
2023-08-28T14:57:23.524Z,25.30
2023-08-28T14:59:51.146Z,25.43
2023-08-28T15:02:19.004Z,25.54
2023-08-28T15:04:47.878Z,25.18
2023-08-28T15:07:16.841Z,25.47
2023-08-28T15:09:44.467Z,26.32
2023-08-28T15:12:13.164Z,26.81
2023-08-28T15:14:42.382Z,26.62
2023-08-28T15:17:11.594Z,26.19
2023-08-28T15:19:39.408Z,26.16
2023-08-28T15:22:07.079Z,26.19
2023-08-28T15:24:35.965Z,25.95
2023-08-28T15:27:04.476Z,25.69
2023-08-28T15:29:32.181Z,25.81
2023-08-28T15:31:59.673Z,25.91
2023-08-28T15:34:27.169Z,26.08
2023-08-28T15:36:55.189Z,26.28
2023-08-28T15:39:22.808Z,26.24
2023-08-28T15:41:50.471Z,26.30
2023-08-28T15:44:18.214Z,26.57
2023-08-28T15:46:45.862Z,26.85
2023-08-28T15:49:14.577Z,26.86
2023-08-28T15:51:42.604Z,27.21
2023-08-28T15:54:10.154Z,27.20
2023-08-28T15:56:37.658Z,27.77
2023-08-28T15:59:14.319Z,28.13
2023-08-28T16:01:43.215Z,28.38
2023-08-28T16:04:11.151Z,29.03
2023-08-28T16:06:42.045Z,29.64
2023-08-28T16:09:13.563Z,30.58
2023-08-28T16:11:48.282Z,31.30
2023-08-28T16:14:16.133Z,32.33
2023-08-28T16:16:43.941Z,33.54
2023-08-28T16:19:14.993Z,34.11
2023-08-28T16:21:42.690Z,34.47
2023-08-28T16:24:10.231Z,34.55
2023-08-28T16:26:37.809Z,35.20
2023-08-28T16:29:05.452Z,35.57
2023-08-28T16:31:33.117Z,36.27
2023-08-28T16:34:01.142Z,36.64
2023-08-28T16:36:29.086Z,37.64
2023-08-28T16:39:00.223Z,38.30
2023-08-28T16:41:27.954Z,38.77
2023-08-28T16:43:55.553Z,39.03
2023-08-28T16:46:23.208Z,39.60
2023-08-28T16:48:51.201Z,40.17
2023-08-28T16:51:18.836Z,40.77
2023-08-28T16:53:46.464Z,41.41
2023-08-28T16:56:14.073Z,42.13
2023-08-28T16:58:41.685Z,42.86
2023-08-28T17:01:09.301Z,43.61
2023-08-28T17:03:36.922Z,44.32
2023-08-28T17:06:04.607Z,45.01
2023-08-28T17:08:32.180Z,45.88
2023-08-28T17:11:01.133Z,46.54
2023-08-28T17:13:28.691Z,47.06
2023-08-28T17:15:56.733Z,47.74
2023-08-28T17:18:24.436Z,48.02
2023-08-28T17:20:53.198Z,48.29
2023-08-28T17:23:20.785Z,48.42
2023-08-28T17:25:48.458Z,48.93
2023-08-28T17:28:16.881Z,49.47
2023-08-28T17:30:44.513Z,50.36
2023-08-28T17:33:12.106Z,50.62
2023-08-28T17:35:39.701Z,51.16
2023-08-28T17:38:07.401Z,51.44
2023-08-28T17:40:34.986Z,51.96
2023-08-28T17:43:02.904Z,52.36
2023-08-28T17:45:30.781Z,52.53
2023-08-28T17:47:58.375Z,53.08
2023-08-28T17:50:26.575Z,53.56
2023-08-28T17:52:54.396Z,53.53
2023-08-28T17:55:21.982Z,53.80
2023-08-28T17:57:49.584Z,54.06
2023-08-28T18:00:17.401Z,54.80
2023-08-28T18:03:00.074Z,56.10
2023-08-28T18:05:28.593Z,57.12
2023-08-28T18:07:56.794Z,57.83
2023-08-28T18:10:24.536Z,57.93
2023-08-28T18:12:52.076Z,57.09
2023-08-28T18:15:22.003Z,56.43
2023-08-28T18:17:51.153Z,55.94
2023-08-28T18:20:21.438Z,55.88
2023-08-28T18:22:49.160Z,55.61
2023-08-28T18:25:16.796Z,55.49
2023-08-28T18:28:00.605Z,55.23
2023-08-28T18:30:31.857Z,55.03
2023-08-28T18:33:00.772Z,54.79
2023-08-28T18:35:28.413Z,55.23
2023-08-28T18:37:58.693Z,55.67
2023-08-28T18:40:26.998Z,56.65
2023-08-28T18:42:55.633Z,57.91
2023-08-28T18:45:25.176Z,58.63
2023-08-28T18:47:54.570Z,59.21
2023-08-28T18:50:24.075Z,59.46
2023-08-28T18:52:51.715Z,59.43
2023-08-28T18:55:31.922Z,59.49
2023-08-28T18:58:02.910Z,59.61
2023-08-28T19:00:31.805Z,59.79
2023-08-28T19:02:59.679Z,59.99
2023-08-28T19:05:27.458Z,60.09
2023-08-28T19:07:59.297Z,60.43
2023-08-28T19:10:40.217Z,60.74
2023-08-28T19:13:08.201Z,60.85
2023-08-28T19:15:35.856Z,61.02
2023-08-28T19:18:03.846Z,61.21
2023-08-28T19:20:38.523Z,61.29
2023-08-28T19:23:12.949Z,61.59
2023-08-28T19:25:40.573Z,61.87
2023-08-28T19:28:08.127Z,62.03
2023-08-28T19:30:35.782Z,62.11
2023-08-28T19:33:04.395Z,62.59
2023-08-28T19:35:32.028Z,62.78
2023-08-28T19:38:00.167Z,63.12
2023-08-28T19:40:27.839Z,63.58
2023-08-28T19:42:56.028Z,63.58
2023-08-28T19:45:23.654Z,64.06
2023-08-28T19:47:52.628Z,64.10
2023-08-28T19:50:22.734Z,64.43
2023-08-28T19:52:50.403Z,64.56
2023-08-28T19:55:18.019Z,64.64
2023-08-28T19:57:45.579Z,64.72
2023-08-28T20:00:20.651Z,64.13
2023-08-28T20:02:49.237Z,63.95
2023-08-28T20:05:16.871Z,64.03
2023-08-28T20:07:45.172Z,63.91
2023-08-28T20:10:12.776Z,63.94
2023-08-28T20:12:40.313Z,63.98
2023-08-28T20:15:08.508Z,63.92
2023-08-28T20:17:36.143Z,63.91
2023-08-28T20:20:07.447Z,64.13
2023-08-28T20:22:34.876Z,64.49
2023-08-28T20:25:02.435Z,64.63
2023-08-28T20:27:30.301Z,64.70
2023-08-28T20:29:57.801Z,65.06
2023-08-28T20:32:25.348Z,65.36
2023-08-28T20:34:52.909Z,65.60
2023-08-28T20:37:20.497Z,65.65
2023-08-28T20:39:48.150Z,65.54
2023-08-28T20:42:15.660Z,65.46
2023-08-28T20:44:43.263Z,65.39
2023-08-28T20:47:10.987Z,65.03
2023-08-28T20:49:38.616Z,64.62
2023-08-28T20:52:06.219Z,64.43
2023-08-28T20:54:33.893Z,64.43
2023-08-28T20:57:01.393Z,65.02
2023-08-28T20:59:29.186Z,65.14
2023-08-28T21:01:57.100Z,65.29
2023-08-28T21:04:25.129Z,65.34
2023-08-28T21:06:52.658Z,65.23
2023-08-28T21:09:20.223Z,65.11
2023-08-28T21:11:47.838Z,64.96
2023-08-28T21:14:15.435Z,64.86
2023-08-28T21:16:43.012Z,64.88
2023-08-28T21:19:18.008Z,64.57
2023-08-28T21:21:45.657Z,64.42
2023-08-28T21:24:13.188Z,64.06
2023-08-28T21:26:40.817Z,63.94
2023-08-28T21:29:08.407Z,63.71
2023-08-28T21:31:35.957Z,63.37
2023-08-28T21:34:03.525Z,63.28
2023-08-28T21:36:31.146Z,63.21
2023-08-28T21:38:58.735Z,63.07
2023-08-28T21:41:26.228Z,63.45
2023-08-28T21:43:53.893Z,63.66
2023-08-28T21:46:21.524Z,63.80
2023-08-28T21:48:49.036Z,63.74
2023-08-28T21:51:35.372Z,63.36
2023-08-28T21:54:21.568Z,62.89
2023-08-28T21:57:08.290Z,62.57
2023-08-28T21:59:54.417Z,61.92
2023-08-28T22:02:40.888Z,61.53
2023-08-28T22:05:27.114Z,61.41
2023-08-28T22:07:54.595Z,61.29
2023-08-28T22:10:26.015Z,61.13
2023-08-28T22:13:16.613Z,61.08
2023-08-28T22:15:44.538Z,61.08
2023-08-28T22:18:12.538Z,61.32
2023-08-28T22:20:43.280Z,61.32
2023-08-28T22:23:12.098Z,61.33
2023-08-28T22:25:43.264Z,61.15
2023-08-28T22:28:12.864Z,60.87
2023-08-28T22:30:42.300Z,60.64
2023-08-28T22:33:09.991Z,60.48
2023-08-28T22:35:37.659Z,60.43
2023-08-28T22:38:05.985Z,60.50
2023-08-28T22:40:34.133Z,60.65
2023-08-28T22:43:01.629Z,60.73
2023-08-28T22:45:29.217Z,60.76
2023-08-28T22:47:56.829Z,60.86
2023-08-28T22:50:24.472Z,60.98
2023-08-28T22:52:52.079Z,61.15
2023-08-28T22:55:19.820Z,61.32
2023-08-28T22:57:47.913Z,61.53
2023-08-28T23:00:15.732Z,61.63
2023-08-28T23:02:43.732Z,61.89
2023-08-28T23:05:11.828Z,62.08
2023-08-28T23:07:39.533Z,62.27
2023-08-28T23:10:08.404Z,62.42
2023-08-28T23:12:35.971Z,62.77
2023-08-28T23:15:03.863Z,63.05
2023-08-28T23:17:31.670Z,63.31
2023-08-28T23:19:59.519Z,63.41
2023-08-28T23:22:27.100Z,63.46
2023-08-28T23:24:54.717Z,63.50
2023-08-28T23:27:22.319Z,64.60
2023-08-28T23:29:49.865Z,65.15
2023-08-28T23:32:17.438Z,65.44
2023-08-28T23:34:45.653Z,65.89
2023-08-28T23:37:13.317Z,66.20
2023-08-28T23:39:40.955Z,66.66
2023-08-28T23:42:08.498Z,67.13
2023-08-28T23:44:36.102Z,67.58
2023-08-28T23:47:03.696Z,68.19
2023-08-28T23:49:31.269Z,69.02
2023-08-28T23:51:58.851Z,69.43
2023-08-28T23:54:26.447Z,69.84
2023-08-28T23:56:53.975Z,70.12
2023-08-28T23:59:21.568Z,70.29
